Time;durP1;ratioP1;P1;durP2;ratioP2;P2;SDS_P1;SDS_P2;PMS_P1;PMS_P2;Temp;Humidity;BMP_temperature;BMP_pressure;BME280_temperature;BME280_humidity;BME280_pressure;Samples;Min_cycle;Max_cycle;Signal;HPM_P1;HPM_P2
2022/05/02 00:01:00;;;;;;;4.68;3.83;;;20.50;37.20;;;;;;5140371;27;20051;-46
2022/05/02 00:03:26;;;;;;;4.20;3.70;;;20.50;37.30;;;;;;5140081;27;20071;-45
2022/05/02 00:05:55;;;;;;;4.70;3.72;;;20.50;37.40;;;;;;5140736;27;20052;-50
2022/05/02 00:08:20;;;;;;;4.68;3.92;;;20.50;37.40;;;;;;5140021;28;20011;-49
2022/05/02 00:10:47;;;;;;;4.72;3.90;;;20.50;37.40;;;;;;5140346;28;20110;-45
2022/05/02 00:13:13;;;;;;;4.22;3.83;;;20.50;37.50;;;;;;5137521;28;20015;-47
2022/05/02 00:15:40;;;;;;;4.43;3.58;;;20.50;37.60;;;;;;5138112;28;20035;-44
2022/05/02 00:18:07;;;;;;;5.90;3.90;;;20.50;37.60;;;;;;5138225;28;20473;-46
2022/05/02 00:20:36;;;;;;;4.45;3.70;;;20.50;37.60;;;;;;5137377;28;20493;-46
2022/05/02 00:23:05;;;;;;;5.20;3.83;;;20.50;37.70;;;;;;5137691;28;20043;-49
2022/05/02 00:25:31;;;;;;;4.78;3.80;;;20.50;37.70;;;;;;5137620;28;20488;-48
2022/05/02 00:27:58;;;;;;;4.38;3.88;;;20.50;37.70;;;;;;5141528;28;20031;-47
2022/05/02 00:30:33;;;;;;;4.35;3.95;;;20.50;37.80;;;;;;5141106;28;20028;-41
2022/05/02 00:32:59;;;;;;;4.82;3.83;;;20.50;37.90;;;;;;5140275;28;20086;-42
2022/05/02 00:35:26;;;;;;;4.60;3.85;;;20.50;37.80;;;;;;5140465;28;20011;-46
2022/05/02 00:37:52;;;;;;;4.93;3.88;;;20.40;37.90;;;;;;5141599;28;20011;-46
2022/05/02 00:40:18;;;;;;;4.28;3.85;;;20.50;38.00;;;;;;5141368;28;20014;-43
2022/05/02 00:42:45;;;;;;;4.43;3.85;;;20.40;38.00;;;;;;5136196;28;20102;-42
2022/05/02 00:45:12;;;;;;;5.57;4.40;;;20.50;38.10;;;;;;5136203;28;20096;-41
2022/05/02 00:47:38;;;;;;;5.45;4.40;;;20.40;38.10;;;;;;5137767;28;20039;-43
2022/05/02 00:50:04;;;;;;;5.68;3.97;;;20.40;38.10;;;;;;5138229;28;20019;-42
2022/05/02 00:52:30;;;;;;;4.75;4.25;;;20.40;38.20;;;;;;5136995;28;20010;-42
2022/05/02 00:54:57;;;;;;;4.50;4.07;;;20.40;38.20;;;;;;5136161;28;20018;-41
2022/05/02 00:57:23;;;;;;;4.65;4.25;;;20.40;38.30;;;;;;5137325;27;20022;-43
2022/05/02 00:59:50;;;;;;;4.65;4.10;;;20.40;38.30;;;;;;5140551;27;20019;-41
2022/05/02 01:02:16;;;;;;;5.30;4.32;;;20.40;38.30;;;;;;5140261;27;20019;-43
2022/05/02 01:04:42;;;;;;;4.72;4.22;;;20.40;38.40;;;;;;5139027;27;20549;-45
2022/05/02 01:07:41;;;;;;;4.65;4.18;;;20.40;38.40;;;;;;5140335;27;20034;-45
2022/05/02 01:10:02;;;;;;;4.80;4.30;;;20.30;38.40;;;;;;5136392;27;20063;-41
2022/05/02 01:12:28;;;;;;;5.00;4.50;;;20.40;38.40;;;;;;5138051;27;20019;-41
2022/05/02 01:14:55;;;;;;;5.22;4.00;;;20.40;38.50;;;;;;5138417;27;20089;-41
2022/05/02 01:17:21;;;;;;;5.32;4.35;;;20.40;38.60;;;;;;5138988;27;20019;-41
2022/05/02 01:19:47;;;;;;;5.00;4.28;;;20.40;38.60;;;;;;5139137;27;20365;-42
2022/05/02 01:22:12;;;;;;;4.72;4.22;;;20.40;38.70;;;;;;5138944;27;20039;-41
2022/05/02 01:24:43;;;;;;;4.85;4.03;;;20.40;38.70;;;;;;5138864;27;20047;-43
2022/05/02 01:27:09;;;;;;;5.18;4.50;;;20.30;38.60;;;;;;5138590;27;20027;-41
2022/05/02 01:29:36;;;;;;;5.43;4.20;;;20.40;38.70;;;;;;5137844;27;20023;-41
2022/05/02 01:32:07;;;;;;;4.93;4.35;;;20.30;38.70;;;;;;5138484;27;20034;-42
2022/05/02 01:34:33;;;;;;;5.53;4.35;;;20.30;38.80;;;;;;5138632;27;20008;-41
2022/05/02 01:37:03;;;;;;;5.00;4.50;;;20.40;38.80;;;;;;5139565;27;20012;-42
2022/05/02 01:39:29;;;;;;;4.78;4.13;;;20.40;38.80;;;;;;5139577;27;20011;-42
2022/05/02 01:41:55;;;;;;;5.93;4.57;;;20.30;38.80;;;;;;5136509;27;20037;-41
2022/05/02 01:44:21;;;;;;;5.47;4.53;;;20.40;38.90;;;;;;5137319;27;20045;-41
2022/05/02 01:46:48;;;;;;;5.40;4.80;;;20.30;38.90;;;;;;5136024;27;20080;-41
2022/05/02 01:49:14;;;;;;;5.63;4.85;;;20.30;39.00;;;;;;5135795;27;20030;-41
2022/05/02 01:51:40;;;;;;;5.28;4.30;;;20.30;39.00;;;;;;5137193;27;20028;-41
2022/05/02 01:54:05;;;;;;;5.60;4.95;;;20.30;39.10;;;;;;5135769;27;20374;-41
2022/05/02 01:56:31;;;;;;;5.05;4.55;;;20.30;39.10;;;;;;5138661;27;20047;-43
2022/05/02 01:58:58;;;;;;;5.13;4.43;;;20.30;39.10;;;;;;5142502;27;20039;-42
2022/05/02 02:01:25;;;;;;;5.10;4.60;;;20.30;39.00;;;;;;5142434;27;20023;-43
2022/05/02 02:03:51;;;;;;;5.65;4.45;;;20.30;39.10;;;;;;5143723;27;20460;-43
2022/05/02 02:06:18;;;;;;;5.90;4.40;;;20.30;39.10;;;;;;5144405;27;20016;-44
2022/05/02 02:08:44;;;;;;;5.65;4.60;;;20.30;39.10;;;;;;5142471;27;20022;-44
2022/05/02 02:11:12;;;;;;;5.43;4.93;;;20.30;39.10;;;;;;5144926;27;20019;-43
2022/05/02 02:13:38;;;;;;;5.72;4.88;;;20.30;39.10;;;;;;5143867;27;20007;-43
2022/05/02 02:16:09;;;;;;;5.30;4.57;;;20.30;39.10;;;;;;5142827;27;20079;-44
2022/05/02 02:18:37;;;;;;;5.53;4.70;;;20.30;39.10;;;;;;5142484;27;20500;-43
2022/05/02 02:21:02;;;;;;;6.10;5.15;;;20.30;39.10;;;;;;5142603;27;20031;-42
2022/05/02 02:23:28;;;;;;;5.00;4.50;;;20.30;39.10;;;;;;5141905;27;20019;-43
2022/05/02 02:25:54;;;;;;;5.68;5.05;;;20.30;39.10;;;;;;5141049;27;20011;-42
2022/05/02 02:28:22;;;;;;;5.20;4.70;;;20.30;39.10;;;;;;5141046;27;20497;-44
2022/05/02 02:30:49;;;;;;;6.63;4.70;;;20.30;39.10;;;;;;5140299;27;20497;-43
2022/05/02 02:33:15;;;;;;;6.63;4.60;;;20.30;39.10;;;;;;5141480;27;20011;-44
2022/05/02 02:35:41;;;;;;;6.05;5.28;;;20.30;39.20;;;;;;5141420;27;20087;-42
2022/05/02 02:38:12;;;;;;;5.72;5.07;;;20.20;39.20;;;;;;5139999;27;20011;-41
2022/05/02 02:40:38;;;;;;;6.35;4.57;;;20.20;39.10;;;;;;5140416;27;20031;-41
2022/05/02 02:43:06;;;;;;;5.72;4.72;;;20.20;39.20;;;;;;5137799;27;20011;-41
2022/05/02 02:45:32;;;;;;;5.20;4.68;;;20.20;39.20;;;;;;5137712;27;20071;-41
2022/05/02 02:47:58;;;;;;;5.45;4.70;;;20.20;39.10;;;;;;5137413;27;20033;-41
2022/05/02 02:50:25;;;;;;;6.22;4.90;;;20.20;39.10;;;;;;5138239;27;20058;-41
2022/05/02 02:52:51;;;;;;;7.43;5.10;;;20.20;39.20;;;;;;5138775;27;20052;-42
2022/05/02 02:55:18;;;;;;;6.90;4.93;;;20.20;39.10;;;;;;5138586;27;20104;-42
2022/05/02 02:57:44;;;;;;;6.57;5.30;;;20.20;39.10;;;;;;5142585;27;20075;-46
2022/05/02 03:00:10;;;;;;;6.00;4.90;;;20.20;39.10;;;;;;5142974;27;20023;-43
2022/05/02 03:02:37;;;;;;;7.18;5.32;;;20.20;39.20;;;;;;5142338;27;20485;-43
2022/05/02 03:07:48;;;;;;;4.88;4.38;;;20.20;39.10;;;;;;5141789;27;20046;-42
2022/05/02 03:10:14;;;;;;;6.60;4.80;;;20.20;39.20;;;;;;5140812;27;20020;-43
2022/05/02 03:12:40;;;;;;;4.93;4.45;;;20.10;39.20;;;;;;5141810;27;20021;-43
2022/05/02 03:15:08;;;;;;;5.38;4.85;;;20.20;39.20;;;;;;5141920;27;20046;-44
2022/05/02 03:17:34;;;;;;;6.22;4.38;;;20.20;39.20;;;;;;5141477;27;20012;-43
2022/05/02 03:20:01;;;;;;;6.35;4.47;;;20.20;39.10;;;;;;5143465;27;20011;-44
2022/05/02 03:22:26;;;;;;;4.93;4.43;;;20.30;38.80;;;;;;5143618;27;20027;-43
2022/05/02 03:24:53;;;;;;;4.88;4.38;;;20.40;38.70;;;;;;5146047;27;20048;-45
2022/05/02 03:27:19;;;;;;;4.95;4.00;;;20.60;38.40;;;;;;5144472;27;20059;-43
2022/05/02 03:29:45;;;;;;;5.15;4.30;;;20.70;38.20;;;;;;5145788;27;20019;-44
2022/05/02 03:32:11;;;;;;;5.30;3.90;;;20.80;37.90;;;;;;5142919;27;20007;-42
2022/05/02 03:34:38;;;;;;;4.47;3.83;;;20.90;37.60;;;;;;5122251;27;20049;-45
2022/05/02 03:37:05;;;;;;;5.93;3.95;;;21.00;37.40;;;;;;5141013;27;20040;-45
2022/05/02 03:39:31;;;;;;;4.85;4.00;;;21.10;37.20;;;;;;5141788;27;20023;-43
2022/05/02 03:41:56;;;;;;;4.13;3.72;;;21.20;37.00;;;;;;5122223;27;20030;-43
2022/05/02 03:44:23;;;;;;;4.90;3.97;;;21.30;36.80;;;;;;5138554;27;20027;-42
2022/05/02 03:46:48;;;;;;;5.35;3.97;;;21.40;36.50;;;;;;5139468;27;20031;-43
2022/05/02 03:49:14;;;;;;;6.63;4.65;;;21.60;36.30;;;;;;5137945;27;20031;-43
2022/05/02 03:51:41;;;;;;;4.80;4.20;;;21.70;36.10;;;;;;5136781;27;20020;-41
2022/05/02 03:54:07;;;;;;;4.20;3.80;;;21.80;35.80;;;;;;5136248;27;20026;-42
2022/05/02 03:56:33;;;;;;;4.47;3.78;;;21.90;35.50;;;;;;5137006;27;20019;-41
2022/05/02 03:58:59;;;;;;;4.07;3.65;;;22.10;35.30;;;;;;5136718;27;20019;-41
2022/05/02 04:01:25;;;;;;;4.68;3.63;;;22.10;35.10;;;;;;5136734;27;20520;-42
2022/05/02 04:03:52;;;;;;;4.38;3.88;;;22.20;35.00;;;;;;5136220;27;20075;-42
2022/05/02 04:06:18;;;;;;;4.35;3.50;;;22.30;34.80;;;;;;5137866;27;20019;-40
2022/05/02 04:08:44;;;;;;;4.63;3.50;;;22.30;34.80;;;;;;5140812;28;20023;-44
2022/05/02 04:11:11;;;;;;;4.88;3.75;;;22.20;34.70;;;;;;5142104;28;20023;-44
2022/05/02 04:13:37;;;;;;;4.10;3.70;;;22.30;34.80;;;;;;5142872;28;20011;-45
2022/05/02 04:16:05;;;;;;;4.10;3.70;;;22.20;34.70;;;;;;5142790;28;20086;-41
2022/05/02 04:18:31;;;;;;;5.15;3.75;;;22.20;34.80;;;;;;5142353;28;20453;-48
2022/05/02 04:20:58;;;;;;;4.20;3.80;;;22.20;34.80;;;;;;5142452;28;20046;-47
2022/05/02 04:23:24;;;;;;;4.22;3.70;;;22.10;34.90;;;;;;5141349;28;20019;-46
2022/05/02 04:25:50;;;;;;;4.03;3.60;;;22.10;35.00;;;;;;5140377;28;20065;-43
2022/05/02 04:28:16;;;;;;;4.38;3.97;;;22.10;35.00;;;;;;5120934;28;20072;-42
2022/05/02 04:30:43;;;;;;;3.70;3.10;;;22.10;34.90;;;;;;5137335;28;20094;-43
2022/05/02 04:33:12;;;;;;;4.22;3.63;;;22.10;34.90;;;;;;5141687;27;20027;-42
2022/05/02 04:35:38;;;;;;;3.92;3.50;;;22.10;34.80;;;;;;5142343;27;20038;-43
2022/05/02 04:38:04;;;;;;;3.80;3.50;;;22.20;34.80;;;;;;5142228;27;20019;-42
2022/05/02 04:40:30;;;;;;;4.00;3.60;;;22.20;34.70;;;;;;5141824;27;20488;-42
2022/05/02 04:42:57;;;;;;;5.47;4.18;;;22.20;35.20;;;;;;5140228;27;20019;-41
2022/05/02 04:45:24;;;;;;;3.42;3.13;;;22.30;34.50;;;;;;5139020;27;20098;-41
2022/05/02 04:47:50;;;;;;;4.90;3.90;;;22.40;34.30;;;;;;5139991;27;20034;-42
2022/05/02 04:50:16;;;;;;;5.80;3.42;;;22.40;34.20;;;;;;5141523;27;20027;-41
2022/05/02 04:52:43;;;;;;;4.38;3.70;;;22.40;34.20;;;;;;5141809;27;20039;-42
2022/05/02 04:55:09;;;;;;;4.78;3.55;;;22.50;34.10;;;;;;5142222;27;20015;-42
2022/05/02 04:57:34;;;;;;;3.90;3.50;;;22.50;33.90;;;;;;5143304;27;20020;-43
2022/05/02 05:00:00;;;;;;;5.15;3.53;;;22.60;33.80;;;;;;5145875;27;20033;-43
2022/05/02 05:02:27;;;;;;;4.13;3.60;;;22.70;33.80;;;;;;5143115;27;20491;-42
2022/05/02 05:04:52;;;;;;;6.10;3.88;;;22.80;33.60;;;;;;5144089;27;20022;-42
2022/05/02 05:07:19;;;;;;;5.90;3.45;;;22.80;33.50;;;;;;5141044;27;20032;-44
2022/05/02 05:09:44;;;;;;;4.03;3.42;;;22.90;33.50;;;;;;5142479;27;20026;-41
2022/05/02 05:12:29;;;;;;;4.18;3.50;;;22.90;33.20;;;;;;5142314;27;20004;-40
2022/05/02 05:18:19;;;;;;;3.50;3.20;;;23.10;32.90;;;;;;5140853;27;20164;-39
2022/05/02 05:20:56;;;;;;;4.45;3.50;;;23.20;32.80;;;;;;5141331;27;20075;-40
2022/05/02 05:23:52;;;;;;;3.80;3.25;;;23.30;32.70;;;;;;5141173;27;20011;-38
2022/05/02 05:26:51;;;;;;;4.47;3.22;;;23.30;32.50;;;;;;5141607;27;20026;-39
2022/05/02 05:29:41;;;;;;;4.40;3.72;;;23.50;32.30;;;;;;5141311;27;20057;-37
2022/05/02 05:32:28;;;;;;;4.10;3.40;;;23.50;32.20;;;;;;5139950;27;20025;-38
2022/05/02 05:35:04;;;;;;;4.22;3.63;;;23.60;32.00;;;;;;5139819;27;20015;-38
2022/05/02 05:38:01;;;;;;;4.97;3.70;;;23.80;31.90;;;;;;5140135;27;20064;-37
2022/05/02 05:40:42;;;;;;;4.28;3.40;;;23.90;31.70;;;;;;5140530;27;20042;-37
2022/05/02 05:43:24;;;;;;;4.05;3.20;;;24.10;31.40;;;;;;5137550;27;20015;-36
2022/05/02 05:46:08;;;;;;;3.70;3.30;;;24.20;31.10;;;;;;5120200;27;20493;-36
2022/05/02 05:48:49;;;;;;;3.90;3.38;;;24.30;30.90;;;;;;5136582;27;20019;-36
2022/05/02 05:51:34;;;;;;;3.55;3.10;;;24.40;30.90;;;;;;5136922;27;20033;-36
2022/05/02 05:54:21;;;;;;;3.53;3.15;;;24.40;30.80;;;;;;5136999;27;20018;-37
2022/05/02 05:57:07;;;;;;;5.10;3.47;;;24.40;30.80;;;;;;5135320;27;20007;-37
2022/05/02 05:59:59;;;;;;;4.05;3.15;;;24.50;30.70;;;;;;5137228;27;20015;-38
2022/05/02 06:02:42;;;;;;;3.42;3.10;;;24.60;30.60;;;;;;5135739;27;20193;-38
2022/05/02 06:05:09;;;;;;;5.32;3.40;;;24.70;30.50;;;;;;5136059;27;20031;-40
2022/05/02 06:07:35;;;;;;;5.57;2.88;;;24.80;30.30;;;;;;5136137;27;20023;-38
2022/05/02 06:10:02;;;;;;;4.30;3.40;;;24.90;30.20;;;;;;5135128;27;20091;-37
2022/05/02 06:12:29;;;;;;;4.25;3.33;;;25.00;30.10;;;;;;5133673;27;20026;-39
2022/05/02 06:20:24;;;;;;;4.40;3.10;;;25.30;29.80;;;;;;5132649;27;20082;-38
2022/05/02 06:22:49;;;;;;;10.52;4.50;;;25.40;29.70;;;;;;5133653;27;20464;-37
2022/05/02 06:25:16;;;;;;;26.08;9.65;;;25.10;30.50;;;;;;5133580;27;20054;-37
2022/05/02 06:27:43;;;;;;;22.77;8.82;;;22.70;35.90;;;;;;5135025;27;20015;-37
2022/05/02 06:30:09;;;;;;;29.48;11.32;;;21.80;37.10;;;;;;5134878;27;20106;-37
2022/05/02 06:32:38;;;;;;;28.02;12.88;;;21.60;37.70;;;;;;5133419;27;20051;-36
2022/05/02 06:35:04;;;;;;;26.65;12.65;;;20.90;38.60;;;;;;5135574;27;20034;-34
2022/05/02 06:37:57;;;;;;;22.90;13.18;;;20.90;38.20;;;;;;5134801;27;20481;-37
2022/05/02 06:40:49;;;;;;;21.98;12.13;;;20.80;38.50;;;;;;5133477;27;20098;-37
2022/05/02 06:43:30;;;;;;;18.33;11.68;;;21.30;38.20;;;;;;5134736;27;20473;-37
2022/05/02 06:46:10;;;;;;;19.73;11.98;;;21.70;36.60;;;;;;5134534;27;20037;-36
2022/05/02 06:48:50;;;;;;;17.33;9.90;;;21.90;35.90;;;;;;5134668;27;20033;-36
2022/05/02 06:51:26;;;;;;;17.83;10.98;;;22.20;35.90;;;;;;5133338;27;20484;-36
2022/05/02 06:54:30;;;;;;;21.13;10.80;;;22.30;35.40;;;;;;5134709;27;20014;-36
2022/05/02 06:57:03;;;;;;;18.27;12.18;;;22.40;35.20;;;;;;5134028;27;20385;-37
2022/05/02 06:59:37;;;;;;;13.88;8.93;;;22.40;34.60;;;;;;5133007;27;20094;-36
2022/05/02 07:02:34;;;;;;;16.48;10.20;;;22.40;35.10;;;;;;5134238;27;20140;-37
2022/05/02 07:05:04;;;;;;;20.63;10.60;;;22.60;35.10;;;;;;5133742;27;20466;-36
2022/05/02 07:07:57;;;;;;;14.90;10.68;;;22.60;35.20;;;;;;5133650;27;20109;-37
2022/05/02 07:10:29;;;;;;;14.43;10.43;;;22.60;35.40;;;;;;5133561;27;20055;-39
2022/05/02 07:13:13;;;;;;;15.02;10.52;;;22.50;34.60;;;;;;5132531;27;20041;-41
2022/05/02 07:15:55;;;;;;;14.27;10.50;;;22.40;36.00;;;;;;5132557;27;20015;-43
2022/05/02 07:18:45;;;;;;;13.80;8.13;;;22.80;35.70;;;;;;5130911;27;20007;-42
2022/05/02 07:21:22;;;;;;;12.43;6.60;;;22.90;35.10;;;;;;5133324;27;20039;-43
2022/05/02 07:23:49;;;;;;;24.73;8.68;;;22.00;36.40;;;;;;5132248;27;20481;-42
2022/05/02 07:26:15;;;;;;;28.13;9.82;;;22.20;36.40;;;;;;5133510;27;20039;-42
2022/05/02 07:28:45;;;;;;;31.30;8.35;;;22.50;36.20;;;;;;5134013;27;20015;-42
2022/05/02 07:31:24;;;;;;;19.02;6.88;;;22.80;36.00;;;;;;5132795;27;20007;-40
2022/05/02 07:33:50;;;;;;;18.30;8.88;;;23.00;35.50;;;;;;5132135;27;20485;-39
2022/05/02 07:36:22;;;;;;;16.63;6.93;;;23.00;35.70;;;;;;5132567;27;20090;-39
2022/05/02 07:38:54;;;;;;;27.80;8.80;;;23.00;35.70;;;;;;5132089;27;20068;-39
2022/05/02 07:41:26;;;;;;;20.70;8.07;;;23.10;35.40;;;;;;5132835;27;20008;-40
2022/05/02 07:43:53;;;;;;;13.98;7.10;;;23.20;35.60;;;;;;5131982;27;20068;-39
2022/05/02 07:46:21;;;;;;;26.27;7.60;;;23.30;35.60;;;;;;5133486;27;20461;-38
2022/05/02 07:48:48;;;;;;;19.88;7.93;;;23.30;35.40;;;;;;5132607;27;20063;-38
2022/05/02 07:51:14;;;;;;;18.75;8.38;;;23.30;35.80;;;;;;5132629;27;20100;-37
2022/05/02 07:53:40;;;;;;;20.08;8.50;;;23.30;34.70;;;;;;5133421;27;20069;-37
2022/05/02 07:56:09;;;;;;;14.50;7.30;;;23.50;34.50;;;;;;5133186;27;20461;-37
2022/05/02 07:58:41;;;;;;;20.95;7.85;;;23.50;34.30;;;;;;5133312;27;20008;-38
2022/05/02 08:01:07;;;;;;;13.55;7.22;;;23.60;34.40;;;;;;5133128;27;20039;-38
2022/05/02 08:03:33;;;;;;;18.95;8.20;;;23.40;34.30;;;;;;5131870;27;20083;-39
2022/05/02 08:06:12;;;;;;;25.83;9.40;;;23.40;34.20;;;;;;5131835;27;20098;-39
2022/05/02 08:08:57;;;;;;;21.05;7.63;;;23.20;34.60;;;;;;5113257;28;20011;-38
2022/05/02 08:11:29;;;;;;;14.88;6.95;;;22.90;34.50;;;;;;5132054;28;20043;-38
2022/05/02 08:14:12;;;;;;;19.05;6.40;;;23.00;33.60;;;;;;5132586;28;20041;-42
2022/05/02 08:16:43;;;;;;;10.60;5.63;;;23.30;32.80;;;;;;5130988;28;20012;-39
2022/05/02 08:19:23;;;;;;;11.63;5.45;;;23.50;32.10;;;;;;5130742;28;20035;-39
2022/05/02 08:27:15;;;;;;;14.27;6.10;;;23.50;31.90;;;;;;5115183;28;20082;-38
2022/05/02 08:28:09;;;;;;;15.55;5.35;;;23.50;31.90;;;;;;5131908;28;20100;-38
2022/05/02 08:31:33;;;;;;;16.63;5.45;;;23.50;32.50;;;;;;5133050;27;20023;-38
2022/05/02 08:34:17;;;;;;;11.80;5.13;;;23.50;33.20;;;;;;5059793;28;20044;-39
2022/05/02 08:36:51;;;;;;;15.88;5.47;;;23.60;32.50;;;;;;5056774;28;20028;-37
2022/05/02 08:39:19;;;;;;;9.60;5.57;;;23.60;32.40;;;;;;5089876;28;20039;-37
2022/05/02 08:42:02;;;;;;;12.50;5.45;;;23.60;32.40;;;;;;5089585;28;20069;-38
2022/05/02 08:45:08;;;;;;;13.48;5.70;;;23.50;32.00;;;;;;5089998;28;20050;-37
2022/05/02 08:47:55;;;;;;;12.73;5.47;;;23.60;32.00;;;;;;5082286;28;20486;-38
2022/05/02 08:50:42;;;;;;;11.52;5.20;;;23.60;32.60;;;;;;5073111;28;20039;-38
2022/05/02 08:53:45;;;;;;;8.13;5.57;;;23.50;32.40;;;;;;5072876;28;20016;-37
2022/05/02 08:56:34;;;;;;;9.05;4.47;;;23.30;32.60;;;;;;5071527;28;20024;-38
2022/05/02 08:59:05;;;;;;;6.70;4.10;;;23.30;32.50;;;;;;5061765;28;20032;-38
2022/05/02 09:01:52;;;;;;;8.27;4.57;;;23.40;31.60;;;;;;5089191;28;20451;-38
2022/05/02 09:04:26;;;;;;;7.85;4.18;;;23.50;31.30;;;;;;5082170;28;20027;-37
2022/05/02 09:07:04;;;;;;;10.57;5.10;;;23.60;31.40;;;;;;5131988;28;20079;-40
2022/05/02 09:10:08;;;;;;;5.97;4.00;;;23.20;31.20;;;;;;5131514;28;20102;-38
2022/05/02 09:13:10;;;;;;;11.40;4.60;;;23.30;31.10;;;;;;5132542;28;20011;-39
2022/05/02 09:16:15;;;;;;;14.38;3.70;;;23.70;30.30;;;;;;5131696;28;20055;-38
2022/05/02 09:19:07;;;;;;;14.35;3.75;;;24.20;29.80;;;;;;5134269;27;20492;-37
2022/05/02 09:21:33;;;;;;;11.23;3.80;;;24.70;29.30;;;;;;5136241;27;20045;-37
2022/05/02 09:24:26;;;;;;;10.13;3.10;;;25.00;28.90;;;;;;5137895;27;20552;-35
2022/05/02 09:27:14;;;;;;;11.82;3.15;;;25.30;28.70;;;;;;5138310;27;20025;-37
2022/05/02 09:29:55;;;;;;;12.38;3.22;;;25.50;28.40;;;;;;5138013;27;20088;-40
2022/05/02 09:32:56;;;;;;;9.25;3.03;;;25.70;28.30;;;;;;5138741;27;20023;-37
2022/05/02 09:35:34;;;;;;;10.70;2.97;;;25.80;28.10;;;;;;5138526;27;20014;-39
2022/05/02 09:38:15;;;;;;;11.98;2.95;;;25.90;28.00;;;;;;5138743;27;20317;-38
2022/05/02 09:40:41;;;;;;;10.02;2.72;;;26.00;27.90;;;;;;5120790;27;20038;-40
2022/05/02 09:50:11;;;;;;;8.63;3.00;;;26.20;27.50;;;;;;5123257;27;20094;-37
2022/05/02 09:53:15;;;;;;;9.32;3.15;;;26.20;27.40;;;;;;5136731;27;20015;-35
2022/05/02 09:58:32;;;;;;;7.70;2.92;;;26.30;27.30;;;;;;5134936;27;20383;-38
2022/05/02 10:01:20;;;;;;;8.88;3.28;;;26.40;27.20;;;;;;5139214;27;20027;-39
2022/05/02 10:04:04;;;;;;;5.30;2.30;;;26.40;27.20;;;;;;5139105;27;20016;-39
2022/05/02 10:06:31;;;;;;;7.18;2.85;;;26.40;27.10;;;;;;5137582;27;20023;-39
2022/05/02 10:09:04;;;;;;;9.60;2.75;;;26.40;27.10;;;;;;5137441;27;20143;-41
2022/05/02 10:11:41;;;;;;;6.50;2.50;;;26.40;27.10;;;;;;5121013;27;20034;-38
2022/05/02 10:14:17;;;;;;;11.65;2.65;;;26.40;27.10;;;;;;5138263;27;20038;-39
2022/05/02 10:17:07;;;;;;;6.65;2.75;;;26.40;27.10;;;;;;5140840;27;20057;-39
2022/05/02 10:20:01;;;;;;;6.85;2.40;;;26.40;27.00;;;;;;5139425;27;20027;-40
2022/05/02 10:22:45;;;;;;;7.32;2.60;;;26.40;27.00;;;;;;5139676;27;20039;-41
2022/05/02 10:25:36;;;;;;;9.00;2.55;;;26.40;27.00;;;;;;5140619;27;20016;-39
2022/05/02 10:28:13;;;;;;;8.80;2.97;;;26.40;27.00;;;;;;5139214;27;20330;-39
2022/05/02 10:30:45;;;;;;;6.18;2.40;;;26.40;27.00;;;;;;5138877;27;20048;-40
2022/05/02 10:33:14;;;;;;;6.85;2.45;;;26.40;27.00;;;;;;5139702;27;20070;-39
2022/05/02 10:35:44;;;;;;;10.73;2.35;;;26.40;27.00;;;;;;5139864;27;20477;-38
2022/05/02 10:38:10;;;;;;;;;;;26.30;27.00;;;;;;5136546;27;20023;-38
2022/05/02 10:40:40;;;;;;;9.60;2.72;;;26.30;27.00;;;;;;5138200;27;19899;-39
2022/05/02 10:43:06;;;;;;;;;;;26.30;27.00;;;;;;5137176;27;20115;-38
2022/05/02 10:45:36;;;;;;;11.75;3.08;;;26.20;27.10;;;;;;5136122;27;19957;-38
2022/05/02 10:48:18;;;;;;;9.98;3.03;;;26.10;27.00;;;;;;5132099;27;20015;-38
2022/05/02 10:51:01;;;;;;;9.48;2.92;;;26.00;27.10;;;;;;5132059;27;20019;-38
2022/05/02 10:53:36;;;;;;;19.55;3.10;;;25.70;27.30;;;;;;5116184;27;20477;-39
2022/05/02 10:56:19;;;;;;;12.73;3.40;;;25.50;27.70;;;;;;5132651;27;20056;-37
2022/05/02 10:58:45;;;;;;;12.73;3.03;;;25.70;27.80;;;;;;5132767;27;20018;-38
2022/05/02 11:01:29;;;;;;;13.50;3.10;;;25.80;27.70;;;;;;5134036;27;20059;-38
2022/05/02 11:04:12;;;;;;;10.70;3.05;;;25.90;27.70;;;;;;5132327;27;20020;-38
2022/05/02 11:06:44;;;;;;;12.40;3.20;;;25.90;27.80;;;;;;5133533;27;20027;-37
2022/05/02 11:09:19;;;;;;;8.25;2.70;;;25.90;27.90;;;;;;5131854;27;20079;-37
2022/05/02 11:11:48;;;;;;;8.32;2.63;;;25.90;28.00;;;;;;5131537;27;20011;-38
2022/05/02 11:14:51;;;;;;;8.95;2.42;;;26.00;28.30;;;;;;5131619;27;20167;-37
2022/05/02 11:17:38;;;;;;;7.20;2.97;;;25.90;28.50;;;;;;5069604;28;20263;-37
2022/05/02 11:23:31;;;;;;;9.90;2.80;;;25.90;28.60;;;;;;5069970;28;20090;-37
2022/05/02 11:26:13;;;;;;;8.60;2.92;;;25.80;28.70;;;;;;5060081;28;20069;-39
2022/05/02 11:29:16;;;;;;;8.13;2.78;;;25.80;28.90;;;;;;5069790;28;20034;-37
2022/05/02 11:32:05;;;;;;;6.28;2.38;;;25.70;29.00;;;;;;5070049;28;20040;-37
2022/05/02 11:34:33;;;;;;;6.15;2.45;;;25.60;29.10;;;;;;5048189;28;20231;-37
2022/05/02 11:36:59;;;;;;;7.32;2.70;;;25.60;29.20;;;;;;5069129;28;20032;-35
2022/05/02 11:39:49;;;;;;;8.52;2.53;;;25.60;29.30;;;;;;5050737;28;20431;-38
2022/05/02 11:42:18;;;;;;;;;;;25.60;29.40;;;;;;5068516;28;20029;-37
2022/05/02 11:45:10;;;;;;;9.43;2.78;;;25.40;29.50;;;;;;5070330;28;20485;-37
2022/05/02 11:48:00;;;;;;;14.32;2.67;;;25.40;29.50;;;;;;5070114;28;20008;-37
2022/05/02 11:50:27;;;;;;;15.98;3.47;;;25.40;29.70;;;;;;5070737;28;20106;-37
2022/05/02 11:52:57;;;;;;;8.60;2.95;;;25.40;29.90;;;;;;5104332;27;20411;-37
2022/05/02 11:55:28;;;;;;;10.00;3.38;;;25.20;30.20;;;;;;5134098;27;20011;-37
2022/05/02 11:58:00;;;;;;;12.93;3.88;;;24.80;30.40;;;;;;5133953;27;20018;-37
2022/05/02 12:00:30;;;;;;;14.20;3.10;;;24.50;30.20;;;;;;5133625;27;20019;-36
2022/05/02 12:03:14;;;;;;;12.13;3.70;;;24.40;30.20;;;;;;5134071;27;20019;-35
2022/05/02 12:05:44;;;;;;;9.40;3.88;;;24.40;29.90;;;;;;5133533;27;20072;-35
2022/05/02 12:08:21;;;;;;;11.00;3.60;;;24.30;29.60;;;;;;5115350;27;20034;-35
2022/05/02 12:10:47;;;;;;;12.85;3.55;;;24.20;29.60;;;;;;5132863;28;20019;-36
2022/05/02 12:13:17;;;;;;;9.40;4.07;;;24.20;29.60;;;;;;5133299;28;20008;-36
2022/05/02 12:16:00;;;;;;;7.93;4.25;;;24.10;29.60;;;;;;5133693;28;20019;-35
2022/05/02 12:18:46;;;;;;;9.55;3.90;;;24.10;28.80;;;;;;5133293;28;20445;-37
2022/05/02 12:21:47;;;;;;;12.50;3.70;;;24.00;29.10;;;;;;5131294;28;20043;-37
2022/05/02 12:24:14;;;;;;;8.18;3.85;;;23.90;29.20;;;;;;5132602;28;20015;-38
2022/05/02 12:26:50;;;;;;;14.02;5.63;;;23.90;29.30;;;;;;5131262;28;20058;-39
2022/05/02 12:29:19;;;;;;;14.88;4.85;;;23.90;28.50;;;;;;5132057;28;20027;-39
2022/05/02 12:31:59;;;;;;;13.05;4.28;;;23.50;29.70;;;;;;5131453;28;20040;-38
2022/05/02 12:34:39;;;;;;;22.80;4.63;;;23.50;29.40;;;;;;5132211;28;20035;-38
2022/05/02 12:37:15;;;;;;;18.88;4.95;;;23.60;29.40;;;;;;5131468;28;20007;-38
2022/05/02 12:39:52;;;;;;;17.52;4.35;;;23.70;29.70;;;;;;5131745;28;20491;-38
2022/05/02 12:42:19;;;;;;;16.48;4.85;;;23.80;29.90;;;;;;5133040;27;20023;-38
2022/05/02 12:44:52;;;;;;;18.65;4.45;;;23.80;29.90;;;;;;5131589;28;20022;-39
2022/05/02 12:47:22;;;;;;;17.50;4.80;;;23.70;30.00;;;;;;5133091;28;20043;-38
2022/05/02 12:50:01;;;;;;;14.65;5.90;;;23.60;30.00;;;;;;5132821;28;20023;-39
2022/05/02 12:52:30;;;;;;;9.10;5.20;;;23.50;29.90;;;;;;5131370;27;20047;-39
2022/05/02 12:54:59;;;;;;;11.40;6.13;;;23.40;29.80;;;;;;5136453;27;20433;-39
2022/05/02 13:00:41;;;;;;;12.57;5.15;;;23.50;30.00;;;;;;5136716;27;20088;-39
2022/05/02 13:03:10;;;;;;;14.88;6.18;;;23.60;30.20;;;;;;5135306;27;20027;-38
2022/05/02 13:05:38;;;;;;;11.77;5.63;;;23.60;29.80;;;;;;5136507;27;20019;-39
2022/05/02 13:08:16;;;;;;;13.13;6.07;;;23.60;30.00;;;;;;5135208;27;20015;-39
2022/05/02 13:10:46;;;;;;;10.77;5.43;;;23.60;29.70;;;;;;5136019;27;20103;-38
2022/05/02 13:13:13;;;;;;;10.75;4.97;;;23.70;29.80;;;;;;5134624;27;20012;-38
2022/05/02 13:15:49;;;;;;;7.22;4.68;;;23.60;29.80;;;;;;5134474;27;20102;-38
2022/05/02 13:18:17;;;;;;;9.73;4.57;;;23.60;29.90;;;;;;5133943;27;20091;-39
2022/05/02 13:20:44;;;;;;;17.73;6.03;;;23.60;29.70;;;;;;5136513;27;20043;-39
2022/05/02 13:23:13;;;;;;;15.98;5.30;;;23.50;29.20;;;;;;5138169;27;20039;-39
2022/05/02 13:26:00;;;;;;;9.27;4.38;;;23.40;29.40;;;;;;5138590;27;20023;-41
2022/05/02 13:28:50;;;;;;;21.00;6.05;;;23.30;29.30;;;;;;5138703;27;20037;-40
2022/05/02 13:31:26;;;;;;;15.60;5.05;;;22.60;30.20;;;;;;5140074;27;20030;-41
2022/05/02 13:33:53;;;;;;;11.75;5.05;;;22.60;30.20;;;;;;5140629;27;20068;-41
2022/05/02 13:36:19;;;;;;;17.85;4.43;;;22.80;30.00;;;;;;5139168;27;20098;-43
2022/05/02 13:38:54;;;;;;;15.98;4.30;;;22.70;30.00;;;;;;5123044;27;20046;-40
2022/05/02 13:41:27;;;;;;;13.07;4.15;;;23.00;29.90;;;;;;5139681;27;20023;-40
2022/05/02 13:44:14;;;;;;;10.18;3.55;;;23.30;29.50;;;;;;5140748;27;20030;-42
2022/05/02 13:47:09;;;;;;;12.93;4.53;;;23.50;29.20;;;;;;5139545;27;20018;-40